sensor_id;sensor_type;location;lat;lon;timestamp;temperature;humidity
52387;DHT22;38317;53.084;6.960;2022-11-04T00:01:12;11.50;99.90
52387;DHT22;38317;53.084;6.960;2022-11-04T00:03:38;11.50;99.90
52387;DHT22;38317;53.084;6.960;2022-11-04T00:06:03;11.50;99.90
52387;DHT22;38317;53.084;6.960;2022-11-04T00:08:29;11.50;99.90
52387;DHT22;38317;53.084;6.960;2022-11-04T00:10:59;11.40;99.90
52387;DHT22;38317;53.084;6.960;2022-11-04T00:13:45;11.50;99.90
52387;DHT22;38317;53.084;6.960;2022-11-04T00:16:11;11.50;99.90
52387;DHT22;38317;53.084;6.960;2022-11-04T00:18:55;11.50;99.90
52387;DHT22;38317;53.084;6.960;2022-11-04T00:21:21;11.50;99.90
52387;DHT22;38317;53.084;6.960;2022-11-04T00:24:07;11.50;99.90
52387;DHT22;38317;53.084;6.960;2022-11-04T00:26:52;11.50;99.90
52387;DHT22;38317;53.084;6.960;2022-11-04T00:29:37;11.50;99.90
52387;DHT22;38317;53.084;6.960;2022-11-04T00:32:02;11.50;99.90
52387;DHT22;38317;53.084;6.960;2022-11-04T00:34:46;11.40;99.90
52387;DHT22;38317;53.084;6.960;2022-11-04T00:37:12;11.40;99.90
52387;DHT22;38317;53.084;6.960;2022-11-04T00:39:38;11.40;99.90
52387;DHT22;38317;53.084;6.960;2022-11-04T00:42:04;11.50;99.90
52387;DHT22;38317;53.084;6.960;2022-11-04T00:44:30;11.40;99.90
52387;DHT22;38317;53.084;6.960;2022-11-04T00:46:55;11.40;99.90
52387;DHT22;38317;53.084;6.960;2022-11-04T00:49:21;11.40;99.90
52387;DHT22;38317;53.084;6.960;2022-11-04T00:51:47;11.40;99.90
52387;DHT22;38317;53.084;6.960;2022-11-04T00:54:13;11.40;99.90
52387;DHT22;38317;53.084;6.960;2022-11-04T00:56:39;11.30;99.90
52387;DHT22;38317;53.084;6.960;2022-11-04T00:59:05;11.40;99.90
52387;DHT22;38317;53.084;6.960;2022-11-04T01:01:31;11.30;99.90
52387;DHT22;38317;53.084;6.960;2022-11-04T01:03:57;11.40;99.90
52387;DHT22;38317;53.084;6.960;2022-11-04T01:06:24;11.40;99.90
52387;DHT22;38317;53.084;6.960;2022-11-04T01:09:03;11.40;99.90
52387;DHT22;38317;53.084;6.960;2022-11-04T01:11:29;12.10;99.90
52387;DHT22;38317;53.084;6.960;2022-11-04T01:13:56;11.40;99.90
52387;DHT22;38317;53.084;6.960;2022-11-04T01:16:23;11.30;99.90
52387;DHT22;38317;53.084;6.960;2022-11-04T01:18:49;11.30;99.90
52387;DHT22;38317;53.084;6.960;2022-11-04T01:21:16;11.30;99.90
52387;DHT22;38317;53.084;6.960;2022-11-04T01:23:43;11.20;99.90
52387;DHT22;38317;53.084;6.960;2022-11-04T01:26:20;11.20;99.90
52387;DHT22;38317;53.084;6.960;2022-11-04T01:28:46;11.10;99.90
52387;DHT22;38317;53.084;6.960;2022-11-04T01:31:17;11.10;99.90
52387;DHT22;38317;53.084;6.960;2022-11-04T01:33:46;11.00;99.90
52387;DHT22;38317;53.084;6.960;2022-11-04T01:36:12;11.00;99.90
52387;DHT22;38317;53.084;6.960;2022-11-04T01:38:38;11.00;99.90
52387;DHT22;38317;53.084;6.960;2022-11-04T01:41:05;11.00;99.90
52387;DHT22;38317;53.084;6.960;2022-11-04T01:43:50;11.00;99.90
52387;DHT22;38317;53.084;6.960;2022-11-04T01:46:26;10.90;99.90
52387;DHT22;38317;53.084;6.960;2022-11-04T01:48:57;10.90;99.90
52387;DHT22;38317;53.084;6.960;2022-11-04T01:51:24;10.90;99.90
52387;DHT22;38317;53.084;6.960;2022-11-04T01:53:54;10.90;99.90
52387;DHT22;38317;53.084;6.960;2022-11-04T01:56:21;10.90;99.90
52387;DHT22;38317;53.084;6.960;2022-11-04T01:58:49;10.90;99.90
52387;DHT22;38317;53.084;6.960;2022-11-04T02:01:16;10.80;99.90
52387;DHT22;38317;53.084;6.960;2022-11-04T02:03:55;10.80;99.90
52387;DHT22;38317;53.084;6.960;2022-11-04T02:06:42;10.80;99.90
52387;DHT22;38317;53.084;6.960;2022-11-04T02:09:09;10.70;99.90
52387;DHT22;38317;53.084;6.960;2022-11-04T02:11:35;10.80;99.90
52387;DHT22;38317;53.084;6.960;2022-11-04T02:14:20;10.70;99.90
52387;DHT22;38317;53.084;6.960;2022-11-04T02:16:47;10.70;99.90
52387;DHT22;38317;53.084;6.960;2022-11-04T02:27:41;10.70;99.90
52387;DHT22;38317;53.084;6.960;2022-11-04T02:30:20;10.60;99.90
52387;DHT22;38317;53.084;6.960;2022-11-04T02:36:01;10.60;99.90
52387;DHT22;38317;53.084;6.960;2022-11-04T02:38:50;10.60;99.90
52387;DHT22;38317;53.084;6.960;2022-11-04T02:41:41;10.60;99.90
52387;DHT22;38317;53.084;6.960;2022-11-04T02:46:59;10.60;99.90
52387;DHT22;38317;53.084;6.960;2022-11-04T02:52:52;10.60;99.90
52387;DHT22;38317;53.084;6.960;2022-11-04T02:55:27;10.60;99.90
52387;DHT22;38317;53.084;6.960;2022-11-04T02:57:57;10.60;99.90
52387;DHT22;38317;53.084;6.960;2022-11-04T03:00:24;10.70;99.90
52387;DHT22;38317;53.084;6.960;2022-11-04T03:03:12;10.70;99.90
52387;DHT22;38317;53.084;6.960;2022-11-04T03:05:40;10.70;99.90
52387;DHT22;38317;53.084;6.960;2022-11-04T03:08:14;10.70;99.90
52387;DHT22;38317;53.084;6.960;2022-11-04T03:10:43;10.70;99.90
52387;DHT22;38317;53.084;6.960;2022-11-04T03:13:18;10.70;99.90
52387;DHT22;38317;53.084;6.960;2022-11-04T03:15:51;10.70;99.90
52387;DHT22;38317;53.084;6.960;2022-11-04T03:21:09;10.70;99.90
52387;DHT22;38317;53.084;6.960;2022-11-04T03:23:36;10.70;99.90
52387;DHT22;38317;53.084;6.960;2022-11-04T03:26:17;10.70;99.90
52387;DHT22;38317;53.084;6.960;2022-11-04T03:29:17;10.60;99.90
52387;DHT22;38317;53.084;6.960;2022-11-04T03:34:14;10.60;99.90
52387;DHT22;38317;53.084;6.960;2022-11-04T03:36:40;10.60;99.90
52387;DHT22;38317;53.084;6.960;2022-11-04T03:39:05;10.60;99.90
52387;DHT22;38317;53.084;6.960;2022-11-04T03:41:41;10.60;99.90
52387;DHT22;38317;53.084;6.960;2022-11-04T03:44:08;10.60;99.90
52387;DHT22;38317;53.084;6.960;2022-11-04T03:46:34;10.60;99.90
52387;DHT22;38317;53.084;6.960;2022-11-04T03:49:01;10.60;99.90
52387;DHT22;38317;53.084;6.960;2022-11-04T03:51:27;10.60;99.90
52387;DHT22;38317;53.084;6.960;2022-11-04T03:53:53;10.60;99.90
52387;DHT22;38317;53.084;6.960;2022-11-04T04:06:39;10.50;99.90
52387;DHT22;38317;53.084;6.960;2022-11-04T04:09:18;10.50;99.90
52387;DHT22;38317;53.084;6.960;2022-11-04T04:14:53;10.50;99.90
52387;DHT22;38317;53.084;6.960;2022-11-04T04:17:38;10.50;99.90
52387;DHT22;38317;53.084;6.960;2022-11-04T04:20:10;10.60;99.90
52387;DHT22;38317;53.084;6.960;2022-11-04T04:22:42;10.50;99.90
52387;DHT22;38317;53.084;6.960;2022-11-04T04:25:11;10.50;99.90
52387;DHT22;38317;53.084;6.960;2022-11-04T04:27:57;10.50;99.90
52387;DHT22;38317;53.084;6.960;2022-11-04T04:30:25;10.50;99.90
52387;DHT22;38317;53.084;6.960;2022-11-04T04:35:30;10.50;99.90
52387;DHT22;38317;53.084;6.960;2022-11-04T04:38:18;10.40;99.90
52387;DHT22;38317;53.084;6.960;2022-11-04T04:41:15;10.40;99.90
52387;DHT22;38317;53.084;6.960;2022-11-04T04:44:00;10.40;99.90
52387;DHT22;38317;53.084;6.960;2022-11-04T04:46:47;10.30;99.90
52387;DHT22;38317;53.084;6.960;2022-11-04T04:49:14;10.30;99.90
52387;DHT22;38317;53.084;6.960;2022-11-04T04:51:43;10.20;99.90
52387;DHT22;38317;53.084;6.960;2022-11-04T04:54:10;10.20;99.90
52387;DHT22;38317;53.084;6.960;2022-11-04T04:56:36;10.20;99.90
52387;DHT22;38317;53.084;6.960;2022-11-04T04:59:02;10.10;99.90
52387;DHT22;38317;53.084;6.960;2022-11-04T05:01:28;10.10;99.90
52387;DHT22;38317;53.084;6.960;2022-11-04T05:03:53;10.10;99.90
52387;DHT22;38317;53.084;6.960;2022-11-04T05:06:19;10.10;99.90
52387;DHT22;38317;53.084;6.960;2022-11-04T05:08:45;10.10;99.90
52387;DHT22;38317;53.084;6.960;2022-11-04T05:11:11;10.10;99.90
52387;DHT22;38317;53.084;6.960;2022-11-04T05:13:37;10.10;99.90
52387;DHT22;38317;53.084;6.960;2022-11-04T05:16:05;10.10;99.90
52387;DHT22;38317;53.084;6.960;2022-11-04T05:18:31;10.10;99.90
52387;DHT22;38317;53.084;6.960;2022-11-04T05:20:57;10.10;99.90
52387;DHT22;38317;53.084;6.960;2022-11-04T05:23:23;10.10;99.90
52387;DHT22;38317;53.084;6.960;2022-11-04T05:25:49;10.10;99.90
52387;DHT22;38317;53.084;6.960;2022-11-04T05:28:15;10.10;99.90
52387;DHT22;38317;53.084;6.960;2022-11-04T05:30:40;10.10;99.90
52387;DHT22;38317;53.084;6.960;2022-11-04T05:33:06;10.10;99.90
52387;DHT22;38317;53.084;6.960;2022-11-04T05:35:32;10.00;99.90
52387;DHT22;38317;53.084;6.960;2022-11-04T05:37:58;10.00;99.90
52387;DHT22;38317;53.084;6.960;2022-11-04T05:40:24;10.00;99.90
52387;DHT22;38317;53.084;6.960;2022-11-04T05:42:50;10.00;99.90
52387;DHT22;38317;53.084;6.960;2022-11-04T05:45:16;9.90;99.90
52387;DHT22;38317;53.084;6.960;2022-11-04T05:47:42;9.90;99.90
52387;DHT22;38317;53.084;6.960;2022-11-04T05:50:08;9.90;99.90
52387;DHT22;38317;53.084;6.960;2022-11-04T05:52:33;9.90;99.90
52387;DHT22;38317;53.084;6.960;2022-11-04T05:54:59;9.90;99.90
52387;DHT22;38317;53.084;6.960;2022-11-04T05:57:25;9.90;99.90
52387;DHT22;38317;53.084;6.960;2022-11-04T05:59:51;9.80;99.90
52387;DHT22;38317;53.084;6.960;2022-11-04T06:02:16;9.70;99.90
52387;DHT22;38317;53.084;6.960;2022-11-04T06:04:42;9.70;99.90
52387;DHT22;38317;53.084;6.960;2022-11-04T06:07:08;9.70;99.90
52387;DHT22;38317;53.084;6.960;2022-11-04T06:09:34;9.70;99.90
52387;DHT22;38317;53.084;6.960;2022-11-04T06:12:14;9.70;99.90
52387;DHT22;38317;53.084;6.960;2022-11-04T06:14:41;9.70;99.90
52387;DHT22;38317;53.084;6.960;2022-11-04T06:17:08;9.60;99.90
52387;DHT22;38317;53.084;6.960;2022-11-04T06:19:36;9.60;99.90
52387;DHT22;38317;53.084;6.960;2022-11-04T06:22:02;9.60;99.90
52387;DHT22;38317;53.084;6.960;2022-11-04T06:24:28;9.60;99.90
52387;DHT22;38317;53.084;6.960;2022-11-04T06:26:54;9.50;99.90
52387;DHT22;38317;53.084;6.960;2022-11-04T06:29:20;9.50;99.90
52387;DHT22;38317;53.084;6.960;2022-11-04T06:31:46;9.50;99.90
52387;DHT22;38317;53.084;6.960;2022-11-04T06:34:11;9.50;99.90
52387;DHT22;38317;53.084;6.960;2022-11-04T06:36:37;9.40;99.90
52387;DHT22;38317;53.084;6.960;2022-11-04T06:39:04;9.50;99.90
52387;DHT22;38317;53.084;6.960;2022-11-04T06:41:30;9.50;99.90
52387;DHT22;38317;53.084;6.960;2022-11-04T06:43:56;9.40;99.90
52387;DHT22;38317;53.084;6.960;2022-11-04T06:46:35;9.50;99.90
52387;DHT22;38317;53.084;6.960;2022-11-04T06:49:02;9.50;99.90
52387;DHT22;38317;53.084;6.960;2022-11-04T06:51:28;9.50;99.90
52387;DHT22;38317;53.084;6.960;2022-11-04T06:53:54;9.40;99.90
52387;DHT22;38317;53.084;6.960;2022-11-04T06:56:20;9.40;99.90
52387;DHT22;38317;53.084;6.960;2022-11-04T06:58:50;9.40;99.90
52387;DHT22;38317;53.084;6.960;2022-11-04T07:01:17;9.40;99.90
52387;DHT22;38317;53.084;6.960;2022-11-04T07:03:43;9.40;99.90
52387;DHT22;38317;53.084;6.960;2022-11-04T07:06:10;9.40;99.90
52387;DHT22;38317;53.084;6.960;2022-11-04T07:08:36;9.40;99.90
52387;DHT22;38317;53.084;6.960;2022-11-04T07:11:02;9.40;99.90
52387;DHT22;38317;53.084;6.960;2022-11-04T07:13:28;9.40;99.90
52387;DHT22;38317;53.084;6.960;2022-11-04T07:15:53;9.40;99.90
52387;DHT22;38317;53.084;6.960;2022-11-04T07:18:19;9.40;99.90
52387;DHT22;38317;53.084;6.960;2022-11-04T07:20:46;9.30;99.90
52387;DHT22;38317;53.084;6.960;2022-11-04T07:23:11;9.30;99.90
52387;DHT22;38317;53.084;6.960;2022-11-04T07:25:37;9.30;99.90
52387;DHT22;38317;53.084;6.960;2022-11-04T07:28:03;9.30;99.90
52387;DHT22;38317;53.084;6.960;2022-11-04T07:30:30;9.30;99.90
52387;DHT22;38317;53.084;6.960;2022-11-04T07:32:56;9.30;99.90
52387;DHT22;38317;53.084;6.960;2022-11-04T07:35:23;9.20;99.90
52387;DHT22;38317;53.084;6.960;2022-11-04T07:37:49;9.20;99.90
52387;DHT22;38317;53.084;6.960;2022-11-04T07:40:15;9.30;99.90
52387;DHT22;38317;53.084;6.960;2022-11-04T07:42:40;9.30;99.90
52387;DHT22;38317;53.084;6.960;2022-11-04T07:45:06;9.30;99.90
52387;DHT22;38317;53.084;6.960;2022-11-04T07:47:32;9.40;99.90
52387;DHT22;38317;53.084;6.960;2022-11-04T07:49:58;9.40;99.90
52387;DHT22;38317;53.084;6.960;2022-11-04T07:52:24;9.40;99.90
52387;DHT22;38317;53.084;6.960;2022-11-04T07:54:50;9.40;99.90
52387;DHT22;38317;53.084;6.960;2022-11-04T07:57:15;9.40;99.90
52387;DHT22;38317;53.084;6.960;2022-11-04T07:59:41;9.40;99.90
52387;DHT22;38317;53.084;6.960;2022-11-04T08:02:09;9.30;99.90
52387;DHT22;38317;53.084;6.960;2022-11-04T08:04:35;9.30;99.90
52387;DHT22;38317;53.084;6.960;2022-11-04T08:07:02;9.30;99.90
52387;DHT22;38317;53.084;6.960;2022-11-04T08:09:28;9.30;99.90
52387;DHT22;38317;53.084;6.960;2022-11-04T08:11:53;9.30;99.90
52387;DHT22;38317;53.084;6.960;2022-11-04T08:14:19;9.30;99.90
52387;DHT22;38317;53.084;6.960;2022-11-04T08:16:45;9.30;99.90
52387;DHT22;38317;53.084;6.960;2022-11-04T08:19:11;9.30;99.90
52387;DHT22;38317;53.084;6.960;2022-11-04T08:21:37;9.30;99.90
52387;DHT22;38317;53.084;6.960;2022-11-04T08:24:03;9.30;99.90
52387;DHT22;38317;53.084;6.960;2022-11-04T08:26:29;9.40;99.90
52387;DHT22;38317;53.084;6.960;2022-11-04T08:28:56;9.40;99.90
52387;DHT22;38317;53.084;6.960;2022-11-04T08:31:27;9.40;99.90
52387;DHT22;38317;53.084;6.960;2022-11-04T08:33:55;9.40;99.90
52387;DHT22;38317;53.084;6.960;2022-11-04T08:36:26;9.40;99.90
52387;DHT22;38317;53.084;6.960;2022-11-04T08:38:53;9.50;99.90
52387;DHT22;38317;53.084;6.960;2022-11-04T08:41:24;9.50;99.90
52387;DHT22;38317;53.084;6.960;2022-11-04T08:43:51;9.60;99.90
52387;DHT22;38317;53.084;6.960;2022-11-04T08:46:17;9.60;99.90
52387;DHT22;38317;53.084;6.960;2022-11-04T08:48:44;9.60;99.90
52387;DHT22;38317;53.084;6.960;2022-11-04T08:51:14;9.60;99.90
52387;DHT22;38317;53.084;6.960;2022-11-04T08:53:40;9.60;99.90
52387;DHT22;38317;53.084;6.960;2022-11-04T08:56:17;9.70;99.90
52387;DHT22;38317;53.084;6.960;2022-11-04T08:58:43;9.70;99.90
52387;DHT22;38317;53.084;6.960;2022-11-04T09:01:09;9.70;99.90
52387;DHT22;38317;53.084;6.960;2022-11-04T09:03:39;9.80;99.90
52387;DHT22;38317;53.084;6.960;2022-11-04T09:06:09;9.70;99.90
52387;DHT22;38317;53.084;6.960;2022-11-04T09:08:35;9.80;99.90
52387;DHT22;38317;53.084;6.960;2022-11-04T09:11:06;9.80;99.90
52387;DHT22;38317;53.084;6.960;2022-11-04T09:13:32;9.80;99.90
52387;DHT22;38317;53.084;6.960;2022-11-04T09:15:58;9.90;99.90
52387;DHT22;38317;53.084;6.960;2022-11-04T09:18:23;9.90;99.90
52387;DHT22;38317;53.084;6.960;2022-11-04T09:20:49;9.90;99.90
52387;DHT22;38317;53.084;6.960;2022-11-04T09:23:15;10.00;99.90
52387;DHT22;38317;53.084;6.960;2022-11-04T09:25:41;10.00;99.90
52387;DHT22;38317;53.084;6.960;2022-11-04T09:28:06;10.10;99.90
52387;DHT22;38317;53.084;6.960;2022-11-04T09:30:32;10.10;99.90
52387;DHT22;38317;53.084;6.960;2022-11-04T09:32:59;10.20;99.90
52387;DHT22;38317;53.084;6.960;2022-11-04T09:35:24;10.30;99.90
52387;DHT22;38317;53.084;6.960;2022-11-04T09:37:52;10.30;99.90
52387;DHT22;38317;53.084;6.960;2022-11-04T09:40:20;10.40;99.90
52387;DHT22;38317;53.084;6.960;2022-11-04T09:45:26;10.60;99.90
52387;DHT22;38317;53.084;6.960;2022-11-04T09:48:00;10.60;99.90
52387;DHT22;38317;53.084;6.960;2022-11-04T09:51:01;10.70;99.90
52387;DHT22;38317;53.084;6.960;2022-11-04T09:53:36;10.90;99.90
52387;DHT22;38317;53.084;6.960;2022-11-04T09:58:37;11.00;99.90
52387;DHT22;38317;53.084;6.960;2022-11-04T10:07:25;11.30;99.90
52387;DHT22;38317;53.084;6.960;2022-11-04T10:10:29;11.30;99.90
52387;DHT22;38317;53.084;6.960;2022-11-04T10:21:43;11.40;99.90
52387;DHT22;38317;53.084;6.960;2022-11-04T10:26:40;11.60;99.90
52387;DHT22;38317;53.084;6.960;2022-11-04T10:29:14;11.60;99.90
52387;DHT22;38317;53.084;6.960;2022-11-04T10:31:41;11.60;99.90
52387;DHT22;38317;53.084;6.960;2022-11-04T10:34:26;11.80;99.90
52387;DHT22;38317;53.084;6.960;2022-11-04T10:36:53;11.90;99.90
52387;DHT22;38317;53.084;6.960;2022-11-04T10:39:36;12.10;99.90
52387;DHT22;38317;53.084;6.960;2022-11-04T10:42:04;12.10;99.90
52387;DHT22;38317;53.084;6.960;2022-11-04T10:44:33;12.10;99.90
52387;DHT22;38317;53.084;6.960;2022-11-04T10:52:08;12.30;99.90
52387;DHT22;38317;53.084;6.960;2022-11-04T10:54:43;12.30;99.90
52387;DHT22;38317;53.084;6.960;2022-11-04T10:57:10;12.40;99.90
52387;DHT22;38317;53.084;6.960;2022-11-04T10:59:57;12.40;99.90
52387;DHT22;38317;53.084;6.960;2022-11-04T11:07:43;13.00;99.90
52387;DHT22;38317;53.084;6.960;2022-11-04T11:10:28;13.10;99.90
52387;DHT22;38317;53.084;6.960;2022-11-04T11:12:59;13.30;99.90
52387;DHT22;38317;53.084;6.960;2022-11-04T11:15:37;13.40;99.90
52387;DHT22;38317;53.084;6.960;2022-11-04T11:20:41;13.60;99.90
52387;DHT22;38317;53.084;6.960;2022-11-04T11:23:44;13.50;99.90
52387;DHT22;38317;53.084;6.960;2022-11-04T11:26:34;13.50;99.90
52387;DHT22;38317;53.084;6.960;2022-11-04T11:28:59;13.40;99.90
52387;DHT22;38317;53.084;6.960;2022-11-04T11:31:38;13.50;99.90
52387;DHT22;38317;53.084;6.960;2022-11-04T11:34:18;13.50;99.90
52387;DHT22;38317;53.084;6.960;2022-11-04T11:36:44;13.50;99.90
52387;DHT22;38317;53.084;6.960;2022-11-04T11:39:16;13.50;99.90
52387;DHT22;38317;53.084;6.960;2022-11-04T11:42:03;13.60;99.90
52387;DHT22;38317;53.084;6.960;2022-11-04T11:47:05;13.60;99.90
52387;DHT22;38317;53.084;6.960;2022-11-04T11:49:33;13.60;99.90
52387;DHT22;38317;53.084;6.960;2022-11-04T11:55:19;13.50;99.90
52387;DHT22;38317;53.084;6.960;2022-11-04T12:00:29;13.60;99.90
52387;DHT22;38317;53.084;6.960;2022-11-04T12:11:44;13.30;99.90
52387;DHT22;38317;53.084;6.960;2022-11-04T12:20:04;13.30;99.90
52387;DHT22;38317;53.084;6.960;2022-11-04T12:30:28;13.10;99.90
52387;DHT22;38317;53.084;6.960;2022-11-04T12:40:52;12.90;99.90
52387;DHT22;38317;53.084;6.960;2022-11-04T12:56:40;11.90;99.90
52387;DHT22;38317;53.084;6.960;2022-11-04T12:59:19;11.70;99.90
52387;DHT22;38317;53.084;6.960;2022-11-04T13:02:06;11.60;99.90
52387;DHT22;38317;53.084;6.960;2022-11-04T13:04:42;11.50;99.90
52387;DHT22;38317;53.084;6.960;2022-11-04T13:07:14;11.40;99.90
52387;DHT22;38317;53.084;6.960;2022-11-04T13:09:48;11.40;99.90
52387;DHT22;38317;53.084;6.960;2022-11-04T13:12:18;11.50;99.90
52387;DHT22;38317;53.084;6.960;2022-11-04T13:14:52;11.50;99.90
52387;DHT22;38317;53.084;6.960;2022-11-04T13:17:26;11.60;99.90
52387;DHT22;38317;53.084;6.960;2022-11-04T13:19:58;11.70;99.90
52387;DHT22;38317;53.084;6.960;2022-11-04T13:22:30;11.70;99.90
52387;DHT22;38317;53.084;6.960;2022-11-04T13:25:08;11.80;99.90
52387;DHT22;38317;53.084;6.960;2022-11-04T13:27:40;11.80;99.90
52387;DHT22;38317;53.084;6.960;2022-11-04T13:30:19;11.90;99.90
52387;DHT22;38317;53.084;6.960;2022-11-04T13:38:44;11.90;99.90
52387;DHT22;38317;53.084;6.960;2022-11-04T13:43:54;11.80;99.90
52387;DHT22;38317;53.084;6.960;2022-11-04T13:46:22;11.80;99.90
52387;DHT22;38317;53.084;6.960;2022-11-04T13:49:05;11.70;99.90
52387;DHT22;38317;53.084;6.960;2022-11-04T13:57:03;11.60;99.90
52387;DHT22;38317;53.084;6.960;2022-11-04T13:59:30;11.60;99.90
52387;DHT22;38317;53.084;6.960;2022-11-04T14:02:34;11.60;99.90
52387;DHT22;38317;53.084;6.960;2022-11-04T14:10:42;11.60;99.90
52387;DHT22;38317;53.084;6.960;2022-11-04T14:18:31;11.50;99.90
52387;DHT22;38317;53.084;6.960;2022-11-04T14:21:21;11.50;99.90
52387;DHT22;38317;53.084;6.960;2022-11-04T14:23:57;11.50;99.90
52387;DHT22;38317;53.084;6.960;2022-11-04T14:26:45;11.40;99.90
52387;DHT22;38317;53.084;6.960;2022-11-04T14:29:18;11.40;99.90
52387;DHT22;38317;53.084;6.960;2022-11-04T14:31:50;11.40;99.90
52387;DHT22;38317;53.084;6.960;2022-11-04T14:34:35;11.30;99.90
52387;DHT22;38317;53.084;6.960;2022-11-04T14:37:25;11.30;99.90
52387;DHT22;38317;53.084;6.960;2022-11-04T14:39:58;11.30;99.90
52387;DHT22;38317;53.084;6.960;2022-11-04T14:42:49;11.30;99.90
52387;DHT22;38317;53.084;6.960;2022-11-04T14:45:21;11.20;99.90
52387;DHT22;38317;53.084;6.960;2022-11-04T14:47:55;11.20;99.90
52387;DHT22;38317;53.084;6.960;2022-11-04T14:50:26;11.20;99.90
52387;DHT22;38317;53.084;6.960;2022-11-04T14:53:02;11.20;99.90
52387;DHT22;38317;53.084;6.960;2022-11-04T14:55:30;11.20;99.90
52387;DHT22;38317;53.084;6.960;2022-11-04T14:58:12;11.20;99.90
52387;DHT22;38317;53.084;6.960;2022-11-04T15:03:24;11.20;99.90
52387;DHT22;38317;53.084;6.960;2022-11-04T15:06:01;11.20;99.90
52387;DHT22;38317;53.084;6.960;2022-11-04T15:08:43;11.20;99.90
52387;DHT22;38317;53.084;6.960;2022-11-04T15:13:36;11.00;99.90
52387;DHT22;38317;53.084;6.960;2022-11-04T15:16:33;11.00;99.90
52387;DHT22;38317;53.084;6.960;2022-11-04T15:18:58;10.90;99.90
52387;DHT22;38317;53.084;6.960;2022-11-04T15:21:25;11.00;99.90
52387;DHT22;38317;53.084;6.960;2022-11-04T15:23:54;10.90;99.90
52387;DHT22;38317;53.084;6.960;2022-11-04T15:26:27;10.90;99.90
52387;DHT22;38317;53.084;6.960;2022-11-04T15:28:54;10.90;99.90
52387;DHT22;38317;53.084;6.960;2022-11-04T15:31:26;10.90;99.90
52387;DHT22;38317;53.084;6.960;2022-11-04T15:33:54;10.90;99.90
52387;DHT22;38317;53.084;6.960;2022-11-04T15:36:23;10.80;99.90
52387;DHT22;38317;53.084;6.960;2022-11-04T15:38:57;10.90;99.90
52387;DHT22;38317;53.084;6.960;2022-11-04T15:41:26;10.80;99.90
52387;DHT22;38317;53.084;6.960;2022-11-04T15:46:49;10.80;99.90
52387;DHT22;38317;53.084;6.960;2022-11-04T15:49:27;10.70;99.90
52387;DHT22;38317;53.084;6.960;2022-11-04T15:52:07;10.70;99.90
52387;DHT22;38317;53.084;6.960;2022-11-04T15:54:38;10.70;99.90
52387;DHT22;38317;53.084;6.960;2022-11-04T15:59:38;10.60;99.90
52387;DHT22;38317;53.084;6.960;2022-11-04T16:02:06;10.60;99.90
52387;DHT22;38317;53.084;6.960;2022-11-04T16:04:42;10.50;99.90
52387;DHT22;38317;53.084;6.960;2022-11-04T16:09:51;10.50;99.90
52387;DHT22;38317;53.084;6.960;2022-11-04T16:12:33;10.40;99.90
52387;DHT22;38317;53.084;6.960;2022-11-04T16:14:59;10.40;99.90
52387;DHT22;38317;53.084;6.960;2022-11-04T16:17:26;10.30;99.90
52387;DHT22;38317;53.084;6.960;2022-11-04T16:19:55;10.30;99.90
52387;DHT22;38317;53.084;6.960;2022-11-04T16:22:34;10.30;99.90
52387;DHT22;38317;53.084;6.960;2022-11-04T16:25:07;10.30;99.90
52387;DHT22;38317;53.084;6.960;2022-11-04T16:27:36;10.20;99.90
52387;DHT22;38317;53.084;6.960;2022-11-04T16:32:46;10.20;99.90
52387;DHT22;38317;53.084;6.960;2022-11-04T16:35:26;10.10;99.90
52387;DHT22;38317;53.084;6.960;2022-11-04T16:37:53;10.10;99.90
52387;DHT22;38317;53.084;6.960;2022-11-04T16:40:21;10.00;99.90
52387;DHT22;38317;53.084;6.960;2022-11-04T16:42:48;10.00;99.90
52387;DHT22;38317;53.084;6.960;2022-11-04T16:45:21;9.90;99.90
52387;DHT22;38317;53.084;6.960;2022-11-04T16:47:48;9.90;99.90
52387;DHT22;38317;53.084;6.960;2022-11-04T16:50:15;9.80;99.90
52387;DHT22;38317;53.084;6.960;2022-11-04T16:52:42;9.80;99.90
52387;DHT22;38317;53.084;6.960;2022-11-04T16:55:10;9.80;99.90
52387;DHT22;38317;53.084;6.960;2022-11-04T16:57:36;9.70;99.90
52387;DHT22;38317;53.084;6.960;2022-11-04T17:00:03;9.70;99.90
52387;DHT22;38317;53.084;6.960;2022-11-04T17:02:34;9.70;99.90
52387;DHT22;38317;53.084;6.960;2022-11-04T17:05:06;9.60;99.90
52387;DHT22;38317;53.084;6.960;2022-11-04T17:07:35;9.60;99.90
52387;DHT22;38317;53.084;6.960;2022-11-04T17:10:03;9.60;99.90
52387;DHT22;38317;53.084;6.960;2022-11-04T17:12:29;9.60;99.90
52387;DHT22;38317;53.084;6.960;2022-11-04T17:14:55;9.50;99.90
52387;DHT22;38317;53.084;6.960;2022-11-04T17:17:21;9.50;99.90
52387;DHT22;38317;53.084;6.960;2022-11-04T17:19:47;9.40;99.90
52387;DHT22;38317;53.084;6.960;2022-11-04T17:22:12;9.40;99.90
52387;DHT22;38317;53.084;6.960;2022-11-04T17:24:38;9.40;99.90
52387;DHT22;38317;53.084;6.960;2022-11-04T17:27:04;9.40;99.90
52387;DHT22;38317;53.084;6.960;2022-11-04T17:29:30;9.30;99.90
52387;DHT22;38317;53.084;6.960;2022-11-04T17:31:56;9.30;99.90
52387;DHT22;38317;53.084;6.960;2022-11-04T17:34:22;9.20;99.90
52387;DHT22;38317;53.084;6.960;2022-11-04T17:36:51;9.20;99.90
52387;DHT22;38317;53.084;6.960;2022-11-04T17:39:17;9.10;99.90
52387;DHT22;38317;53.084;6.960;2022-11-04T17:41:43;9.20;99.90
52387;DHT22;38317;53.084;6.960;2022-11-04T17:44:27;9.10;99.90
52387;DHT22;38317;53.084;6.960;2022-11-04T17:46:53;9.10;99.90
52387;DHT22;38317;53.084;6.960;2022-11-04T17:49:21;9.10;99.90
52387;DHT22;38317;53.084;6.960;2022-11-04T17:51:51;9.00;99.90
52387;DHT22;38317;53.084;6.960;2022-11-04T17:54:18;9.00;99.90
52387;DHT22;38317;53.084;6.960;2022-11-04T17:56:45;9.00;99.90
52387;DHT22;38317;53.084;6.960;2022-11-04T17:59:12;8.90;99.90
52387;DHT22;38317;53.084;6.960;2022-11-04T18:01:38;8.90;99.90
52387;DHT22;38317;53.084;6.960;2022-11-04T18:04:05;8.90;99.90
52387;DHT22;38317;53.084;6.960;2022-11-04T18:06:32;8.90;99.90
52387;DHT22;38317;53.084;6.960;2022-11-04T18:08:58;8.80;99.90
52387;DHT22;38317;53.084;6.960;2022-11-04T18:11:26;8.80;99.90
52387;DHT22;38317;53.084;6.960;2022-11-04T18:14:11;8.70;99.90
52387;DHT22;38317;53.084;6.960;2022-11-04T18:16:41;8.70;99.90
52387;DHT22;38317;53.084;6.960;2022-11-04T18:19:07;8.70;99.90
52387;DHT22;38317;53.084;6.960;2022-11-04T18:21:33;8.60;99.90
52387;DHT22;38317;53.084;6.960;2022-11-04T18:23:59;8.60;99.90
52387;DHT22;38317;53.084;6.960;2022-11-04T18:26:24;8.60;99.90
52387;DHT22;38317;53.084;6.960;2022-11-04T18:28:51;8.60;99.90
52387;DHT22;38317;53.084;6.960;2022-11-04T18:31:28;8.50;99.90
52387;DHT22;38317;53.084;6.960;2022-11-04T18:33:58;8.50;99.90
52387;DHT22;38317;53.084;6.960;2022-11-04T18:36:25;8.50;99.90
52387;DHT22;38317;53.084;6.960;2022-11-04T18:38:51;8.50;99.90
52387;DHT22;38317;53.084;6.960;2022-11-04T18:41:17;8.40;99.90
52387;DHT22;38317;53.084;6.960;2022-11-04T18:43:43;8.40;99.90
52387;DHT22;38317;53.084;6.960;2022-11-04T18:46:11;8.40;99.90